Time;durP1;ratioP1;P1;durP2;ratioP2;P2;SDS_P1;SDS_P2;PMS_P1;PMS_P2;Temp;Humidity;BMP_temperature;BMP_pressure;BME280_temperature;BME280_humidity;BME280_pressure;Samples;Min_cycle;Max_cycle;Signal;HPM_P1;HPM_P2
2023/10/06 00:02:28;;;;;;;0.93;0.70;;;14.50;1.00;;;;;;5103072;28;20264;-83
2023/10/06 00:04:56;;;;;;;1.92;1.00;;;14.50;1.00;;;;;;5101905;28;20154;-83
2023/10/06 00:07:24;;;;;;;1.55;0.82;;;14.50;1.00;;;;;;5102921;28;20149;-84
2023/10/06 00:09:53;;;;;;;1.35;0.70;;;14.50;1.00;;;;;;5102837;28;20048;-83
2023/10/06 00:12:21;;;;;;;1.30;0.60;;;14.50;1.00;;;;;;5102685;28;20461;-83
2023/10/06 00:14:50;;;;;;;0.80;0.50;;;14.50;1.00;;;;;;5085731;28;20047;-83
2023/10/06 00:17:17;;;;;;;1.13;0.65;;;14.50;11.40;;;;;;5103839;28;20040;-83
2023/10/06 00:19:45;;;;;;;1.50;0.60;;;14.50;28.20;;;;;;5103658;28;20056;-84
2023/10/06 00:22:17;;;;;;;0.50;0.40;;;14.50;34.00;;;;;;5102443;28;20127;-82
2023/10/06 00:24:46;;;;;;;0.98;0.40;;;14.60;92.00;;;;;;5102231;28;20070;-84
2023/10/06 00:27:13;;;;;;;1.05;0.50;;;14.50;98.70;;;;;;5102190;28;20046;-83
2023/10/06 00:29:54;;;;;;;1.00;0.50;;;14.60;99.90;;;;;;5102059;28;20051;-83
2023/10/06 00:32:21;;;;;;;1.00;0.60;;;14.50;99.90;;;;;;5102368;28;20078;-83
2023/10/06 00:34:49;;;;;;;0.50;0.40;;;14.50;99.90;;;;;;5068968;28;20047;-83
2023/10/06 00:37:16;;;;;;;0.85;0.50;;;14.50;99.90;;;;;;5081641;28;20046;-83
2023/10/06 00:39:43;;;;;;;0.60;0.50;;;14.60;99.90;;;;;;5101034;28;20112;-83
2023/10/06 00:42:15;;;;;;;0.90;0.45;;;14.60;99.90;;;;;;5103902;28;20230;-83
2023/10/06 00:44:45;;;;;;;1.08;0.60;;;14.60;99.90;;;;;;5085445;28;20587;-83
2023/10/06 00:47:13;;;;;;;1.67;0.40;;;14.60;99.90;;;;;;5085876;28;20050;-83
2023/10/06 00:49:40;;;;;;;1.33;0.65;;;14.60;99.90;;;;;;5081215;28;20490;-83
2023/10/06 00:52:08;;;;;;;0.90;0.52;;;14.60;99.90;;;;;;5103513;28;20321;-84
2023/10/06 00:54:34;;;;;;;0.93;0.50;;;14.70;98.10;;;;;;5083478;28;20075;-83
2023/10/06 00:57:08;;;;;;;1.10;0.70;;;14.60;92.40;;;;;;5101467;28;20492;-84
2023/10/06 00:59:38;;;;;;;0.70;0.55;;;14.70;85.10;;;;;;5101785;28;20350;-83
2023/10/06 01:02:11;;;;;;;1.00;0.50;;;14.70;75.70;;;;;;5101633;28;20039;-82
2023/10/06 01:04:45;;;;;;;0.95;0.45;;;14.70;71.30;;;;;;5083311;28;20056;-84
2023/10/06 01:07:13;;;;;;;1.80;0.43;;;14.70;65.90;;;;;;5070119;28;20101;-83
2023/10/06 01:09:57;;;;;;;1.27;0.45;;;14.70;62.70;;;;;;5100792;28;20047;-83
2023/10/06 01:12:26;;;;;;;0.80;0.47;;;14.70;43.20;;;;;;5081358;28;20435;-83
2023/10/06 01:15:05;;;;;;;1.10;0.57;;;14.70;75.60;;;;;;5084043;28;20055;-83
2023/10/06 01:17:33;;;;;;;1.05;0.40;;;14.70;75.90;;;;;;5101270;28;20220;-84
2023/10/06 01:20:02;;;;;;;1.20;0.68;;;14.70;71.90;;;;;;5101477;28;20051;-83
2023/10/06 01:22:30;;;;;;;1.17;0.60;;;14.60;83.20;;;;;;5101554;28;20043;-83
2023/10/06 01:25:03;;;;;;;1.27;0.55;;;14.60;60.40;;;;;;5064031;28;20054;-83
2023/10/06 01:27:30;;;;;;;;;;;14.70;44.40;;;;;;5101973;28;20128;-83
2023/10/06 01:32:58;;;;;;;0.50;0.28;;;14.60;23.90;;;;;;5033493;28;20071;-84
2023/10/06 01:35:26;;;;;;;0.50;0.35;;;14.60;30.00;;;;;;5084712;28;20279;-83
2023/10/06 01:38:00;;;;;;;1.02;0.47;;;14.60;19.10;;;;;;5102955;28;20055;-84
2023/10/06 01:42:55;;;;;;;0.68;0.40;;;14.50;89.50;;;;;;5102808;28;20106;-84
2023/10/06 01:45:22;;;;;;;0.85;0.45;;;14.50;99.90;;;;;;5082323;28;20437;-82
2023/10/06 01:47:56;;;;;;;0.85;0.50;;;14.40;99.90;;;;;;5101624;28;20097;-82
2023/10/06 01:50:26;;;;;;;1.33;0.40;;;14.50;99.90;;;;;;5102740;28;20051;-82
2023/10/06 01:52:55;;;;;;;1.05;0.70;;;14.40;99.90;;;;;;5100935;28;20054;-83
2023/10/06 01:55:24;;;;;;;0.82;0.40;;;14.40;99.90;;;;;;5083619;28;20052;-82
2023/10/06 01:57:54;;;;;;;2.92;0.63;;;14.40;99.90;;;;;;5101191;28;20350;-82
2023/10/06 02:00:31;;;;;;;1.13;0.47;;;14.40;99.90;;;;;;5084495;28;20047;-82
2023/10/06 02:02:58;;;;;;;0.85;0.40;;;14.40;1.00;;;;;;5086788;28;20520;-82
2023/10/06 02:05:26;;;;;;;1.55;0.70;;;14.40;1.00;;;;;;5085772;28;20136;-82
2023/10/06 02:08:00;;;;;;;1.05;0.40;;;14.30;1.00;;;;;;5102398;28;20530;-81
2023/10/06 02:10:27;;;;;;;0.50;0.38;;;14.30;1.00;;;;;;5069574;28;20481;-82
2023/10/06 02:12:55;;;;;;;1.10;0.60;;;14.30;1.00;;;;;;5102384;28;20362;-82
2023/10/06 02:15:24;;;;;;;1.02;0.30;;;14.30;1.00;;;;;;5101677;28;20047;-80
2023/10/06 02:17:51;;;;;;;0.93;0.50;;;14.30;99.90;;;;;;5102270;28;20047;-82
2023/10/06 02:22:52;;;;;;;1.35;0.40;;;14.30;99.90;;;;;;5103341;28;20043;-82
2023/10/06 02:25:20;;;;;;;1.10;0.47;;;14.20;99.90;;;;;;5101291;28;20047;-82
2023/10/06 02:27:50;;;;;;;0.73;0.50;;;14.20;99.90;;;;;;5102139;28;20382;-82
2023/10/06 02:30:19;;;;;;;0.73;0.43;;;14.30;99.90;;;;;;5084849;28;20093;-82
2023/10/06 02:32:46;;;;;;;0.63;0.40;;;14.30;99.90;;;;;;5080112;28;20050;-82
2023/10/06 02:35:17;;;;;;;0.43;0.30;;;14.30;99.90;;;;;;5063847;28;20174;-81
2023/10/06 02:37:49;;;;;;;0.63;0.30;;;14.30;99.90;;;;;;5082548;28;20262;-81
2023/10/06 02:40:16;;;;;;;1.50;0.52;;;14.30;99.90;;;;;;5091402;28;20047;-80
2023/10/06 02:42:51;;;;;;;0.40;0.30;;;14.30;99.90;;;;;;5078078;28;20137;-80
2023/10/06 02:45:21;;;;;;;0.52;0.38;;;14.30;99.90;;;;;;5081826;28;20109;-80
2023/10/06 02:47:48;;;;;;;0.82;0.50;;;14.20;99.90;;;;;;5079547;28;20043;-80
2023/10/06 02:50:21;;;;;;;0.65;0.40;;;14.20;99.90;;;;;;5094648;28;20162;-80
2023/10/06 02:52:53;;;;;;;1.15;0.80;;;14.20;1.00;;;;;;5101893;28;20059;-80
2023/10/06 02:55:30;;;;;;;1.70;0.82;;;14.20;13.10;;;;;;5101725;28;20595;-80
2023/10/06 02:57:58;;;;;;;0.80;0.57;;;14.20;61.50;;;;;;5102900;28;20039;-79
2023/10/06 03:02:55;;;;;;;1.33;0.60;;;14.20;99.90;;;;;;5101374;28;20047;-80
2023/10/06 03:05:32;;;;;;;1.45;0.70;;;14.20;99.90;;;;;;5084808;28;20046;-81
2023/10/06 03:08:00;;;;;;;1.13;0.70;;;14.20;99.90;;;;;;5085934;28;20046;-80
2023/10/06 03:10:35;;;;;;;1.08;0.50;;;14.30;99.90;;;;;;5086207;28;20624;-81
2023/10/06 03:13:03;;;;;;;1.50;0.68;;;14.30;99.90;;;;;;5087723;28;20540;-80
2023/10/06 03:15:45;;;;;;;1.17;0.50;;;14.20;99.90;;;;;;5080395;28;20506;-80
2023/10/06 03:18:15;;;;;;;1.42;0.77;;;14.30;99.90;;;;;;5101042;28;20039;-80
2023/10/06 03:20:46;;;;;;;0.98;0.57;;;14.30;99.90;;;;;;5103096;28;20464;-80
2023/10/06 03:23:29;;;;;;;1.42;0.95;;;14.30;99.90;;;;;;5103273;28;20134;-80
2023/10/06 03:25:57;;;;;;;0.73;0.50;;;14.40;99.90;;;;;;5104260;28;20465;-81
2023/10/06 03:28:31;;;;;;;1.02;0.43;;;14.40;99.90;;;;;;5085700;28;20332;-80
2023/10/06 03:31:05;;;;;;;1.02;0.60;;;14.40;99.90;;;;;;5072054;28;20040;-80
2023/10/06 03:33:32;;;;;;;;;;;14.40;99.90;;;;;;5087207;28;20055;-81
2023/10/06 03:35:58;;;;;;;2.35;0.50;;;14.40;99.90;;;;;;5104227;28;20012;-81
2023/10/06 03:46:12;;;;;;;1.48;0.60;;;14.40;99.90;;;;;;5102930;28;20066;-81
2023/10/06 03:48:39;;;;;;;1.13;0.70;;;14.50;99.90;;;;;;5069399;28;20400;-80
2023/10/06 03:51:06;;;;;;;1.38;0.68;;;14.50;99.90;;;;;;5104599;28;20050;-81
2023/10/06 03:53:33;;;;;;;1.17;0.47;;;14.50;99.90;;;;;;5101534;28;20039;-81
2023/10/06 03:56:00;;;;;;;1.63;0.65;;;14.50;99.90;;;;;;5104709;28;20279;-81
2023/10/06 03:58:29;;;;;;;1.30;0.82;;;14.50;99.90;;;;;;5103780;28;20043;-80
2023/10/06 04:00:56;;;;;;;1.10;0.70;;;14.50;99.90;;;;;;5102503;28;20430;-82
2023/10/06 04:03:23;;;;;;;1.00;0.60;;;14.50;99.90;;;;;;5089493;28;20128;-82
2023/10/06 04:05:51;;;;;;;0.57;0.40;;;14.50;99.90;;;;;;5107710;28;20382;-82
2023/10/06 04:08:22;;;;;;;0.68;0.50;;;14.50;99.90;;;;;;5088070;28;20376;-81
2023/10/06 04:10:51;;;;;;;0.98;0.60;;;14.50;99.90;;;;;;5089903;28;20507;-82
2023/10/06 04:13:20;;;;;;;0.68;0.47;;;14.50;99.90;;;;;;5102530;28;20331;-82
2023/10/06 04:15:50;;;;;;;1.00;0.45;;;14.50;99.90;;;;;;5106261;28;20136;-80
2023/10/06 04:18:21;;;;;;;0.85;0.40;;;14.50;99.90;;;;;;5107905;28;20089;-82
2023/10/06 04:20:50;;;;;;;0.20;0.20;;;14.50;99.90;;;;;;5089902;28;20055;-81
2023/10/06 04:23:18;;;;;;;0.55;0.40;;;14.50;99.90;;;;;;5088075;28;20044;-81
2023/10/06 04:25:45;;;;;;;0.85;0.38;;;14.50;99.90;;;;;;5108014;28;20347;-81
2023/10/06 04:28:15;;;;;;;0.88;0.47;;;14.50;99.90;;;;;;5088840;28;20055;-82
2023/10/06 04:30:43;;;;;;;0.57;0.32;;;14.50;99.90;;;;;;5107483;28;20135;-81
2023/10/06 04:33:14;;;;;;;0.95;0.60;;;14.50;99.90;;;;;;5105615;28;20051;-81
2023/10/06 04:35:47;;;;;;;1.02;0.50;;;14.50;99.90;;;;;;5106210;28;20224;-82
2023/10/06 04:38:17;;;;;;;1.00;0.60;;;14.40;99.90;;;;;;5073480;28;20438;-81
2023/10/06 04:40:44;;;;;;;0.30;0.30;;;14.40;99.90;;;;;;5105829;28;20043;-82
2023/10/06 04:43:11;;;;;;;0.57;0.40;;;14.40;99.90;;;;;;5088290;28;20446;-82
2023/10/06 04:45:38;;;;;;;1.30;0.45;;;14.40;99.90;;;;;;5105535;28;20742;-82
2023/10/06 04:48:07;;;;;;;0.40;0.30;;;14.40;99.90;;;;;;5066487;28;20119;-82
2023/10/06 04:50:35;;;;;;;0.63;0.30;;;14.50;99.90;;;;;;5067329;28;20067;-82
2023/10/06 04:53:05;;;;;;;0.90;0.40;;;14.40;99.90;;;;;;5066079;28;20039;-81
2023/10/06 04:55:37;;;;;;;0.85;0.30;;;14.40;99.90;;;;;;5086771;28;20126;-79
2023/10/06 04:58:08;;;;;;;0.85;0.40;;;14.50;99.90;;;;;;5103291;28;20104;-81
2023/10/06 05:00:35;;;;;;;1.55;0.47;;;14.40;99.90;;;;;;5103553;28;20047;-82
2023/10/06 05:03:04;;;;;;;1.17;0.40;;;14.40;99.90;;;;;;5100277;28;20055;-81
2023/10/06 05:05:36;;;;;;;1.00;0.40;;;14.40;99.90;;;;;;5084869;28;20119;-82
2023/10/06 05:08:03;;;;;;;0.90;0.55;;;14.40;99.90;;;;;;5081165;28;20434;-82
2023/10/06 05:10:31;;;;;;;2.15;0.70;;;14.40;99.90;;;;;;5066980;28;20146;-81
2023/10/06 05:13:05;;;;;;;0.57;0.40;;;14.40;99.90;;;;;;5084044;28;20051;-80
2023/10/06 05:15:35;;;;;;;0.85;0.40;;;14.40;99.90;;;;;;5070221;28;20051;-81
2023/10/06 05:18:03;;;;;;;0.70;0.50;;;14.40;99.90;;;;;;5088011;28;20465;-81
2023/10/06 05:20:31;;;;;;;0.40;0.30;;;14.40;99.90;;;;;;5104631;28;20055;-81
2023/10/06 05:23:05;;;;;;;0.50;0.40;;;14.40;99.90;;;;;;5070809;28;20047;-81
2023/10/06 05:25:36;;;;;;;0.50;0.30;;;14.40;99.90;;;;;;5071671;28;20067;-81
2023/10/06 05:28:04;;;;;;;0.68;0.40;;;14.40;99.90;;;;;;5087372;28;20066;-80
2023/10/06 05:30:31;;;;;;;0.50;0.40;;;14.40;99.90;;;;;;5081603;28;20059;-80
2023/10/06 05:32:59;;;;;;;0.80;0.40;;;14.40;99.90;;;;;;5099823;28;20148;-80
2023/10/06 05:35:27;;;;;;;0.85;0.45;;;14.40;99.90;;;;;;5080817;28;20035;-80
2023/10/06 05:37:54;;;;;;;0.52;0.30;;;14.40;99.90;;;;;;5100759;28;20051;-80
2023/10/06 05:40:21;;;;;;;0.40;0.25;;;14.40;99.90;;;;;;5099959;28;20040;-80
2023/10/06 05:42:49;;;;;;;1.00;0.50;;;14.40;99.90;;;;;;5100666;28;20086;-80
2023/10/06 05:45:18;;;;;;;1.23;0.30;;;14.40;99.90;;;;;;5100696;28;20503;-80
2023/10/06 05:47:54;;;;;;;0.88;0.40;;;14.40;99.90;;;;;;5070878;28;20135;-80
2023/10/06 05:50:28;;;;;;;0.50;0.43;;;14.40;99.90;;;;;;5104821;28;20047;-80
2023/10/06 05:52:59;;;;;;;;;;;14.40;99.90;;;;;;5085114;28;20051;-80
2023/10/06 05:55:35;;;;;;;0.35;0.32;;;14.40;99.90;;;;;;5082781;28;19998;-80
2023/10/06 05:58:04;;;;;;;1.25;0.40;;;14.40;99.90;;;;;;5100379;28;20397;-80
2023/10/06 06:00:31;;;;;;;0.45;0.30;;;14.40;1.00;;;;;;5084228;28;20047;-80
2023/10/06 06:03:06;;;;;;;0.95;0.40;;;14.40;1.00;;;;;;5082943;28;20326;-80
2023/10/06 06:05:33;;;;;;;0.95;0.20;;;14.40;1.00;;;;;;5104984;28;20051;-79
2023/10/06 06:08:08;;;;;;;0.60;0.30;;;14.40;1.00;;;;;;5103404;28;20051;-80
2023/10/06 06:10:36;;;;;;;0.50;0.28;;;14.40;1.00;;;;;;5103768;28;20470;-79
2023/10/06 06:13:03;;;;;;;1.10;0.50;;;14.40;1.00;;;;;;5101456;28;20665;-80
2023/10/06 06:15:31;;;;;;;0.82;0.40;;;14.40;1.00;;;;;;5100015;28;20040;-80
2023/10/06 06:17:58;;;;;;;0.45;0.20;;;14.40;13.80;;;;;;5085039;28;20052;-80
2023/10/06 06:20:26;;;;;;;0.93;0.47;;;14.40;23.50;;;;;;5103311;28;20101;-80
2023/10/06 06:22:59;;;;;;;0.47;0.32;;;14.40;31.30;;;;;;5100164;28;20052;-81
2023/10/06 06:25:26;;;;;;;;;;;14.40;88.90;;;;;;5092422;28;20127;-80
2023/10/06 06:27:54;;;;;;;0.55;0.35;;;14.40;99.90;;;;;;5091280;28;19980;-81
2023/10/06 06:30:23;;;;;;;0.45;0.38;;;14.30;99.90;;;;;;5100126;28;20054;-80
2023/10/06 06:32:52;;;;;;;0.38;0.20;;;14.40;99.90;;;;;;5104155;28;20054;-80
2023/10/06 06:35:21;;;;;;;0.45;0.32;;;14.30;99.90;;;;;;5088948;28;20117;-80
2023/10/06 06:38:01;;;;;;;1.15;0.38;;;14.30;99.90;;;;;;5100286;28;20124;-81
2023/10/06 06:40:31;;;;;;;0.40;0.30;;;14.30;99.90;;;;;;5065850;28;20048;-81
2023/10/06 06:42:59;;;;;;;0.50;0.50;;;14.30;99.90;;;;;;5093857;28;20052;-81
2023/10/06 06:45:28;;;;;;;0.80;0.30;;;14.30;99.90;;;;;;5082624;28;20451;-80
2023/10/06 06:47:55;;;;;;;0.75;0.40;;;14.30;99.90;;;;;;5081724;28;20060;-80
2023/10/06 06:50:22;;;;;;;0.30;0.30;;;14.40;99.90;;;;;;5066020;28;20100;-80
2023/10/06 06:52:54;;;;;;;0.63;0.40;;;14.40;99.90;;;;;;5066093;28;20460;-80
2023/10/06 06:55:21;;;;;;;0.90;0.60;;;14.40;99.90;;;;;;5063369;28;20427;-80
2023/10/06 06:57:49;;;;;;;0.32;0.32;;;14.40;99.90;;;;;;5101621;28;20150;-80
2023/10/06 07:00:23;;;;;;;1.42;0.50;;;14.40;99.90;;;;;;5069128;28;20062;-81
2023/10/06 07:02:53;;;;;;;0.75;0.50;;;14.40;99.90;;;;;;5064710;28;20142;-80
2023/10/06 07:05:21;;;;;;;0.52;0.30;;;14.50;99.90;;;;;;5083434;28;20077;-81
2023/10/06 07:07:50;;;;;;;0.80;0.50;;;14.50;99.90;;;;;;5084329;28;20130;-81
2023/10/06 07:10:22;;;;;;;0.73;0.40;;;14.60;99.90;;;;;;5101677;28;20044;-81
2023/10/06 07:12:50;;;;;;;0.70;0.50;;;14.60;99.90;;;;;;5086507;28;20101;-80
2023/10/06 07:15:18;;;;;;;0.55;0.40;;;14.70;99.90;;;;;;5066411;28;20071;-81
2023/10/06 07:17:50;;;;;;;0.50;0.30;;;14.70;99.90;;;;;;5083019;28;20582;-81
2023/10/06 07:20:23;;;;;;;0.40;0.30;;;14.80;99.90;;;;;;5085319;28;20416;-81
2023/10/06 07:22:54;;;;;;;0.40;0.30;;;14.80;90.70;;;;;;5069960;28;20123;-81
2023/10/06 07:25:26;;;;;;;0.65;0.30;;;14.90;1.00;;;;;;5097824;28;20047;-81
2023/10/06 07:27:57;;;;;;;1.17;0.57;;;14.90;1.00;;;;;;5086008;28;20043;-81
2023/10/06 07:30:28;;;;;;;0.30;0.28;;;15.00;1.00;;;;;;5069322;28;20137;-81
2023/10/06 07:32:55;;;;;;;0.43;0.30;;;15.00;1.00;;;;;;5102939;28;20126;-81
2023/10/06 07:38:10;;;;;;;0.68;0.40;;;15.10;99.90;;;;;;5104735;28;20048;-81
2023/10/06 07:40:38;;;;;;;1.33;0.70;;;15.20;99.90;;;;;;5074563;28;20043;-81
2023/10/06 07:43:07;;;;;;;3.25;0.93;;;15.20;99.90;;;;;;5089697;28;20051;-81
2023/10/06 07:45:34;;;;;;;1.17;0.82;;;15.20;99.90;;;;;;5089735;28;20382;-81
2023/10/06 07:48:00;;;;;;;0.80;0.50;;;15.20;99.90;;;;;;5072666;28;20146;-82
2023/10/06 07:50:28;;;;;;;1.00;0.40;;;15.30;99.90;;;;;;5071567;28;20047;-81
2023/10/06 07:52:57;;;;;;;0.40;0.40;;;15.40;92.80;;;;;;5084968;28;20121;-82
2023/10/06 07:55:24;;;;;;;0.60;0.50;;;15.50;20.10;;;;;;5108071;28;20048;-80
2023/10/06 07:57:51;;;;;;;0.70;0.57;;;15.60;1.00;;;;;;5090372;28;20323;-82
2023/10/06 08:00:29;;;;;;;0.57;0.50;;;15.60;99.90;;;;;;5107347;28;20229;-81
2023/10/06 08:02:57;;;;;;;0.50;0.40;;;15.70;99.90;;;;;;5092355;28;20135;-81
2023/10/06 08:05:25;;;;;;;0.77;0.40;;;15.70;99.90;;;;;;5091008;28;20051;-80
2023/10/06 08:07:57;;;;;;;0.75;0.50;;;15.80;96.20;;;;;;5107198;28;20128;-81
2023/10/06 08:10:25;;;;;;;0.70;0.30;;;15.90;1.00;;;;;;5085692;28;20457;-81
2023/10/06 08:12:56;;;;;;;0.68;0.47;;;16.00;99.90;;;;;;5087070;28;20451;-81
2023/10/06 08:15:27;;;;;;;0.88;0.50;;;16.00;99.90;;;;;;5106865;28;20070;-81
2023/10/06 08:17:55;;;;;;;0.70;0.50;;;16.10;99.90;;;;;;5106372;28;20044;-79
2023/10/06 08:20:27;;;;;;;0.35;0.25;;;16.10;99.90;;;;;;5068894;28;20063;-81
2023/10/06 08:22:56;;;;;;;0.70;0.50;;;16.20;1.00;;;;;;5096025;28;20078;-81
2023/10/06 08:25:24;;;;;;;0.38;0.30;;;16.30;1.00;;;;;;5106132;28;20050;-81
2023/10/06 08:27:52;;;;;;;0.28;0.28;;;16.40;99.90;;;;;;5106757;28;20298;-80
2023/10/06 08:30:19;;;;;;;0.25;0.22;;;16.50;99.90;;;;;;5089894;28;20185;-80
2023/10/06 08:32:52;;;;;;;0.73;0.30;;;16.60;99.90;;;;;;5089909;28;20429;-80
2023/10/06 08:35:20;;;;;;;0.45;0.40;;;16.60;99.90;;;;;;5072936;28;20051;-81
2023/10/06 08:37:49;;;;;;;0.50;0.40;;;16.70;99.90;;;;;;5106846;28;20131;-80
2023/10/06 08:40:17;;;;;;;0.68;0.60;;;16.80;99.90;;;;;;5089039;28;20062;-81
2023/10/06 08:42:48;;;;;;;0.75;0.52;;;16.70;99.90;;;;;;5073319;28;20051;-81
2023/10/06 08:45:20;;;;;;;0.60;0.40;;;16.70;99.90;;;;;;5089785;28;20051;-80
2023/10/06 08:47:49;;;;;;;0.32;0.32;;;16.80;99.90;;;;;;5073635;28;20047;-81
2023/10/06 08:50:29;;;;;;;0.65;0.40;;;16.90;99.90;;;;;;5076776;28;20050;-80
2023/10/06 08:52:57;;;;;;;1.75;0.50;;;17.00;99.90;;;;;;5073371;28;20059;-80
2023/10/06 08:55:30;;;;;;;1.10;0.50;;;17.00;99.90;;;;;;5088134;28;20230;-81
2023/10/06 08:57:59;;;;;;;;;;;17.10;99.90;;;;;;5090681;28;20073;-81
2023/10/06 09:00:32;;;;;;;1.92;0.50;;;17.20;99.90;;;;;;5090017;28;20467;-80
2023/10/06 09:03:08;;;;;;;0.43;0.30;;;17.20;99.90;;;;;;5089722;28;20409;-80
2023/10/06 09:05:40;;;;;;;0.60;0.40;;;17.30;99.90;;;;;;5106301;28;20507;-81
2023/10/06 09:08:09;;;;;;;0.50;0.30;;;17.30;99.90;;;;;;5106619;28;20562;-80
2023/10/06 09:10:40;;;;;;;0.70;0.70;;;17.30;95.60;;;;;;5090074;28;20479;-81
2023/10/06 09:13:11;;;;;;;0.45;0.35;;;17.40;96.30;;;;;;5089472;28;20044;-81
2023/10/06 09:15:40;;;;;;;0.50;0.50;;;17.40;93.30;;;;;;5089055;28;20059;-81
2023/10/06 09:18:21;;;;;;;0.88;0.50;;;17.50;89.00;;;;;;5072575;28;20413;-80
2023/10/06 09:20:49;;;;;;;0.65;0.57;;;17.60;67.30;;;;;;5073063;28;20398;-80
2023/10/06 09:23:30;;;;;;;0.55;0.40;;;17.60;59.60;;;;;;5103651;28;20051;-80
2023/10/06 09:25:57;;;;;;;0.98;0.63;;;17.70;38.60;;;;;;5103746;28;20052;-81
2023/10/06 09:28:26;;;;;;;0.75;0.50;;;17.80;36.30;;;;;;5103538;28;20090;-81
2023/10/06 09:30:57;;;;;;;0.77;0.52;;;17.70;28.20;;;;;;5106142;28;20048;-82
2023/10/06 09:33:26;;;;;;;0.68;0.47;;;17.80;25.70;;;;;;5106005;28;20259;-84
2023/10/06 09:36:06;;;;;;;0.43;0.40;;;17.80;21.70;;;;;;5107019;28;20099;-83
2023/10/06 09:38:35;;;;;;;1.70;0.68;;;17.80;13.90;;;;;;5104286;28;20270;-81
2023/10/06 09:41:02;;;;;;;1.90;0.50;;;17.90;7.50;;;;;;5102288;28;20048;-82
2023/10/06 09:43:34;;;;;;;0.85;0.50;;;17.90;5.30;;;;;;5096279;28;20044;-82
2023/10/06 09:46:08;;;;;;;1.55;0.80;;;18.00;1.00;;;;;;5104067;28;20422;-82
2023/10/06 09:48:39;;;;;;;1.13;0.75;;;18.00;1.00;;;;;;5087781;28;20112;-82
2023/10/06 09:51:07;;;;;;;1.10;0.70;;;18.10;1.00;;;;;;5088696;28;20047;-81
2023/10/06 09:53:38;;;;;;;2.00;0.90;;;18.20;1.00;;;;;;5070009;28;20092;-82
2023/10/06 09:56:13;;;;;;;1.63;0.63;;;18.20;1.00;;;;;;5104342;28;20039;-82
2023/10/06 09:58:47;;;;;;;1.52;0.80;;;18.30;1.00;;;;;;5103043;28;20105;-83
2023/10/06 10:01:15;;;;;;;1.20;0.70;;;18.40;1.00;;;;;;5102193;28;20043;-82
2023/10/06 10:03:42;;;;;;;1.67;0.75;;;18.50;1.00;;;;;;5082579;28;20055;-83
2023/10/06 10:06:10;;;;;;;1.08;0.55;;;18.70;1.00;;;;;;5081666;28;20298;-81
2023/10/06 10:08:41;;;;;;;0.70;0.50;;;18.70;1.00;;;;;;5082407;28;20134;-83
2023/10/06 10:11:30;;;;;;;0.82;0.68;;;18.80;1.00;;;;;;5085295;28;20047;-83
2023/10/06 10:14:19;;;;;;;0.65;0.50;;;18.70;1.00;;;;;;5099753;28;20067;-82
2023/10/06 10:16:49;;;;;;;0.90;0.57;;;18.80;1.00;;;;;;5100727;28;20063;-85
2023/10/06 10:19:18;;;;;;;1.08;0.80;;;18.80;1.00;;;;;;5099683;28;20036;-84
2023/10/06 10:21:45;;;;;;;1.15;0.65;;;18.90;1.00;;;;;;5067617;28;20066;-84
2023/10/06 10:24:13;;;;;;;1.10;0.70;;;18.90;1.00;;;;;;5062041;28;20055;-86
2023/10/06 10:26:59;;;;;;;0.88;0.52;;;18.90;1.00;;;;;;5082428;28;20043;-85
2023/10/06 10:29:29;;;;;;;1.38;0.90;;;19.00;1.00;;;;;;5103451;28;20481;-83
2023/10/06 10:32:12;;;;;;;1.45;0.80;;;18.90;1.00;;;;;;5100151;28;20043;-84
2023/10/06 10:35:08;;;;;;;1.10;0.83;;;18.90;1.00;;;;;;5097560;28;20493;-85
2023/10/06 10:38:15;;;;;;;1.77;1.13;;;18.90;1.00;;;;;;5096467;28;20047;-83
2023/10/06 10:40:49;;;;;;;0.77;0.68;;;18.90;1.00;;;;;;5016361;28;20048;-82
2023/10/06 10:43:17;;;;;;;2.03;1.05;;;19.00;1.00;;;;;;5031615;28;20658;-83
2023/10/06 10:45:45;;;;;;;1.23;0.82;;;19.10;1.00;;;;;;5044596;28;20059;-83
2023/10/06 10:48:15;;;;;;;1.25;0.60;;;19.20;1.00;;;;;;5079730;28;20055;-83
2023/10/06 10:50:57;;;;;;;0.90;0.50;;;19.30;1.00;;;;;;5104073;27;20617;-84
2023/10/06 10:53:29;;;;;;;1.02;0.60;;;19.30;1.00;;;;;;5107428;27;20428;-84
2023/10/06 10:55:56;;;;;;;1.02;0.63;;;19.30;1.00;;;;;;5077561;28;20044;-84
2023/10/06 10:58:49;;;;;;;1.42;0.82;;;19.40;1.00;;;;;;5084384;28;20055;-84
2023/10/06 11:01:31;;;;;;;;;;;19.30;1.00;;;;;;5084405;28;20097;-83
2023/10/06 11:04:18;;;;;;;1.30;0.82;;;19.30;1.00;;;;;;5093621;28;19972;-82
2023/10/06 11:06:48;;;;;;;1.77;0.90;;;19.40;1.00;;;;;;5089062;28;20051;-84
2023/10/06 11:09:28;;;;;;;1.88;0.98;;;19.40;1.00;;;;;;5088045;28;20438;-78
2023/10/06 11:11:58;;;;;;;1.52;0.90;;;19.40;1.00;;;;;;5086089;28;20060;-84
2023/10/06 11:14:46;;;;;;;1.17;0.80;;;19.40;1.00;;;;;;5090396;28;20164;-84
2023/10/06 11:17:13;;;;;;;0.88;0.60;;;19.50;1.00;;;;;;5089953;28;20044;-84
2023/10/06 11:19:40;;;;;;;1.27;0.85;;;19.80;1.00;;;;;;5097668;28;20332;-83
2023/10/06 11:22:14;;;;;;;1.70;0.82;;;19.90;1.00;;;;;;5086677;28;20132;-84
2023/10/06 11:24:44;;;;;;;1.33;0.75;;;19.90;1.00;;;;;;5088928;28;20044;-82
2023/10/06 11:27:16;;;;;;;1.23;0.73;;;19.90;1.00;;;;;;5065414;28;20043;-85
2023/10/06 11:29:44;;;;;;;1.58;0.88;;;20.10;1.00;;;;;;5099312;28;20293;-83
2023/10/06 11:32:12;;;;;;;1.35;0.82;;;20.20;1.00;;;;;;5106669;28;20044;-85
2023/10/06 11:34:42;;;;;;;1.65;1.00;;;20.40;1.00;;;;;;5083171;28;20047;-85
2023/10/06 11:37:09;;;;;;;1.60;0.90;;;20.50;1.00;;;;;;5091892;28;20043;-85
2023/10/06 11:39:37;;;;;;;1.02;0.73;;;20.60;1.00;;;;;;5103231;28;20086;-85
2023/10/06 11:42:25;;;;;;;1.50;0.90;;;20.60;1.00;;;;;;5108639;28;20055;-85
2023/10/06 11:44:55;;;;;;;0.98;0.60;;;20.60;1.00;;;;;;5106031;28;20158;-84
2023/10/06 11:47:27;;;;;;;1.70;1.13;;;20.60;1.00;;;;;;5087390;28;20142;-85
2023/10/06 11:49:58;;;;;;;2.15;1.10;;;20.50;1.00;;;;;;5102118;28;20048;-85
2023/10/06 11:52:27;;;;;;;1.60;1.15;;;20.50;1.00;;;;;;5091861;28;20051;-84
2023/10/06 11:54:56;;;;;;;1.70;0.80;;;20.60;1.00;;;;;;5088603;28;20411;-84
2023/10/06 11:57:51;;;;;;;1.30;0.60;;;20.70;1.00;;;;;;5095202;28;20048;-83
2023/10/06 12:00:19;;;;;;;2.42;0.90;;;20.80;1.00;;;;;;5089232;28;20054;-84
2023/10/06 12:02:51;;;;;;;1.70;0.95;;;20.70;1.00;;;;;;5073531;28;20044;-86
2023/10/06 12:05:18;;;;;;;1.17;0.85;;;20.60;1.00;;;;;;5085264;28;20047;-85
2023/10/06 12:07:52;;;;;;;0.38;0.38;;;20.50;1.00;;;;;;5070389;28;20116;-84
2023/10/06 12:10:20;;;;;;;0.75;0.60;;;20.50;1.00;;;;;;5104141;28;20451;-84
2023/10/06 12:12:48;;;;;;;0.73;0.63;;;20.60;1.00;;;;;;5073355;28;20048;-84
2023/10/06 12:15:15;;;;;;;1.63;0.85;;;20.90;1.00;;;;;;5095892;28;20048;-84
2023/10/06 12:17:42;;;;;;;1.08;0.90;;;21.30;1.00;;;;;;5068965;28;20118;-84
2023/10/06 12:20:16;;;;;;;0.85;0.70;;;21.50;1.00;;;;;;5077954;28;20389;-84
2023/10/06 12:22:43;;;;;;;1.00;0.70;;;21.80;1.00;;;;;;5065053;28;20370;-84
2023/10/06 12:25:11;;;;;;;1.42;0.90;;;22.10;1.00;;;;;;5088462;28;20048;-84
2023/10/06 12:27:45;;;;;;;0.82;0.68;;;22.30;1.00;;;;;;5083131;28;20059;-84
2023/10/06 12:30:13;;;;;;;1.30;0.80;;;22.60;1.00;;;;;;5087127;28;20054;-83
2023/10/06 12:32:41;;;;;;;2.33;0.90;;;22.80;1.00;;;;;;5082112;28;20236;-84
2023/10/06 12:35:09;;;;;;;1.58;1.15;;;23.10;1.00;;;;;;5095301;28;20100;-84
2023/10/06 12:37:40;;;;;;;0.85;0.75;;;23.10;1.00;;;;;;5067650;28;20389;-85
2023/10/06 12:40:11;;;;;;;0.73;0.60;;;23.40;1.00;;;;;;5102518;28;20486;-85
2023/10/06 12:42:38;;;;;;;0.73;0.70;;;23.60;3.80;;;;;;5092452;28;20052;-84
2023/10/06 12:45:12;;;;;;;1.08;0.80;;;23.60;1.00;;;;;;5095627;28;20067;-84
2023/10/06 12:47:40;;;;;;;2.28;1.00;;;23.90;8.70;;;;;;5089651;28;20053;-84
2023/10/06 12:50:08;;;;;;;1.50;0.98;;;23.80;9.50;;;;;;5095327;27;20144;-82
2023/10/06 12:52:36;;;;;;;0.85;0.70;;;23.60;10.80;;;;;;5086507;28;20513;-82
2023/10/06 12:55:10;;;;;;;1.15;0.88;;;23.70;9.10;;;;;;5106182;28;20574;-82
2023/10/06 12:57:38;;;;;;;2.33;0.88;;;24.10;9.30;;;;;;5089399;28;20071;-85
2023/10/06 13:00:06;;;;;;;7.43;1.63;;;24.20;10.10;;;;;;5077673;28;21134;-79
2023/10/06 13:02:34;;;;;;;1.45;1.00;;;24.40;10.10;;;;;;5086042;28;20416;-83
2023/10/06 13:05:13;;;;;;;4.18;1.27;;;24.40;7.90;;;;;;5095731;28;20432;-82
2023/10/06 13:07:42;;;;;;;2.90;1.08;;;24.40;5.80;;;;;;5086895;28;20079;-82
2023/10/06 13:10:09;;;;;;;3.15;1.20;;;24.40;5.80;;;;;;5100626;28;20078;-81
2023/10/06 13:12:39;;;;;;;5.60;1.40;;;24.60;10.20;;;;;;5094625;28;20066;-83
2023/10/06 13:15:13;;;;;;;1.48;0.90;;;24.80;8.90;;;;;;5095156;28;20058;-84
2023/10/06 13:17:40;;;;;;;1.13;0.70;;;25.30;17.60;;;;;;5069301;28;20109;-83
2023/10/06 13:20:13;;;;;;;1.08;0.63;;;25.60;20.60;;;;;;5088772;28;20055;-84
2023/10/06 13:22:43;;;;;;;1.60;0.90;;;25.90;11.40;;;;;;5101306;28;20044;-83
2023/10/06 13:25:11;;;;;;;1.13;0.98;;;25.90;10.70;;;;;;5089306;28;20096;-83
2023/10/06 13:27:40;;;;;;;2.22;1.38;;;25.90;11.70;;;;;;5082129;28;20414;-86
2023/10/06 13:30:14;;;;;;;1.05;0.90;;;25.90;10.30;;;;;;5073636;28;20072;-85
2023/10/06 13:32:42;;;;;;;1.45;0.98;;;25.80;10.10;;;;;;5086386;28;20052;-85